sensor_id;sensor_type;location;lat;lon;timestamp;temperature;humidity
53268;DHT22;39156;51.176;6.738;2022-12-29T00:02:15;10.00;78.30
53268;DHT22;39156;51.176;6.738;2022-12-29T00:04:41;10.10;78.30
53268;DHT22;39156;51.176;6.738;2022-12-29T00:07:08;10.30;78.40
53268;DHT22;39156;51.176;6.738;2022-12-29T00:09:34;10.20;78.30
53268;DHT22;39156;51.176;6.738;2022-12-29T00:12:02;10.20;78.20
53268;DHT22;39156;51.176;6.738;2022-12-29T00:14:29;10.30;78.10
53268;DHT22;39156;51.176;6.738;2022-12-29T00:17:13;10.30;78.10
53268;DHT22;39156;51.176;6.738;2022-12-29T00:19:39;10.30;78.00
53268;DHT22;39156;51.176;6.738;2022-12-29T00:22:24;10.40;77.90
53268;DHT22;39156;51.176;6.738;2022-12-29T00:25:10;10.30;77.80
53268;DHT22;39156;51.176;6.738;2022-12-29T00:27:55;10.20;77.70
53268;DHT22;39156;51.176;6.738;2022-12-29T00:30:40;10.70;78.00
53268;DHT22;39156;51.176;6.738;2022-12-29T00:33:30;11.00;78.20
53268;DHT22;39156;51.176;6.738;2022-12-29T00:36:19;10.10;77.90
53268;DHT22;39156;51.176;6.738;2022-12-29T00:39:00;10.20;77.80
53268;DHT22;39156;51.176;6.738;2022-12-29T00:41:48;10.30;77.90
53268;DHT22;39156;51.176;6.738;2022-12-29T00:44:32;10.30;78.00
53268;DHT22;39156;51.176;6.738;2022-12-29T00:46:58;10.20;77.90
53268;DHT22;39156;51.176;6.738;2022-12-29T00:49:28;11.00;78.90
53268;DHT22;39156;51.176;6.738;2022-12-29T00:52:03;10.90;78.20
53268;DHT22;39156;51.176;6.738;2022-12-29T00:54:33;10.30;77.90
53268;DHT22;39156;51.176;6.738;2022-12-29T00:57:01;10.40;77.80
53268;DHT22;39156;51.176;6.738;2022-12-29T00:59:28;10.80;77.70
53268;DHT22;39156;51.176;6.738;2022-12-29T01:02:28;10.40;77.50
53268;DHT22;39156;51.176;6.738;2022-12-29T01:05:02;10.40;77.60
53268;DHT22;39156;51.176;6.738;2022-12-29T01:07:28;10.40;77.50
53268;DHT22;39156;51.176;6.738;2022-12-29T01:09:54;10.50;77.40
53268;DHT22;39156;51.176;6.738;2022-12-29T01:12:36;10.50;77.30
53268;DHT22;39156;51.176;6.738;2022-12-29T01:15:09;10.60;77.20
53268;DHT22;39156;51.176;6.738;2022-12-29T01:17:38;10.50;76.90
53268;DHT22;39156;51.176;6.738;2022-12-29T01:20:04;10.60;76.80
53268;DHT22;39156;51.176;6.738;2022-12-29T01:22:31;10.60;77.30
53268;DHT22;39156;51.176;6.738;2022-12-29T01:24:56;10.80;76.80
53268;DHT22;39156;51.176;6.738;2022-12-29T01:27:22;10.90;76.60
53268;DHT22;39156;51.176;6.738;2022-12-29T01:29:51;10.70;76.40
53268;DHT22;39156;51.176;6.738;2022-12-29T01:32:16;10.80;75.70
53268;DHT22;39156;51.176;6.738;2022-12-29T01:34:42;11.10;76.20
53268;DHT22;39156;51.176;6.738;2022-12-29T01:37:08;11.10;76.10
53268;DHT22;39156;51.176;6.738;2022-12-29T01:39:34;11.90;76.30
53268;DHT22;39156;51.176;6.738;2022-12-29T01:41:59;11.10;75.90
53268;DHT22;39156;51.176;6.738;2022-12-29T01:47:38;10.80;75.50
53268;DHT22;39156;51.176;6.738;2022-12-29T01:50:25;10.80;75.20
53268;DHT22;39156;51.176;6.738;2022-12-29T01:53:30;10.90;74.90
53268;DHT22;39156;51.176;6.738;2022-12-29T01:55:56;10.80;74.50
53268;DHT22;39156;51.176;6.738;2022-12-29T01:58:29;10.80;74.40
53268;DHT22;39156;51.176;6.738;2022-12-29T02:00:58;11.50;74.70
53268;DHT22;39156;51.176;6.738;2022-12-29T02:03:27;10.90;74.30
53268;DHT22;39156;51.176;6.738;2022-12-29T02:05:58;10.90;74.00
53268;DHT22;39156;51.176;6.738;2022-12-29T02:08:28;10.90;73.80
53268;DHT22;39156;51.176;6.738;2022-12-29T02:10:56;11.00;73.80
53268;DHT22;39156;51.176;6.738;2022-12-29T02:13:24;10.90;73.70
53268;DHT22;39156;51.176;6.738;2022-12-29T02:25:43;10.90;72.60
53268;DHT22;39156;51.176;6.738;2022-12-29T02:41:30;10.90;72.20
53268;DHT22;39156;51.176;6.738;2022-12-29T02:47:09;10.90;72.20
53268;DHT22;39156;51.176;6.738;2022-12-29T02:49:56;11.90;72.60
53268;DHT22;39156;51.176;6.738;2022-12-29T02:52:42;10.90;72.00
53268;DHT22;39156;51.176;6.738;2022-12-29T02:55:12;10.90;72.00
53268;DHT22;39156;51.176;6.738;2022-12-29T02:57:38;11.70;72.70
53268;DHT22;39156;51.176;6.738;2022-12-29T03:00:16;12.00;72.80
53268;DHT22;39156;51.176;6.738;2022-12-29T03:09:02;11.00;72.30
53268;DHT22;39156;51.176;6.738;2022-12-29T03:11:48;11.10;72.40
53268;DHT22;39156;51.176;6.738;2022-12-29T03:14:39;11.10;72.30
53268;DHT22;39156;51.176;6.738;2022-12-29T03:17:58;11.10;72.40
53268;DHT22;39156;51.176;6.738;2022-12-29T03:20:42;11.10;72.40
53268;DHT22;39156;51.176;6.738;2022-12-29T03:23:45;11.10;72.50
53268;DHT22;39156;51.176;6.738;2022-12-29T03:26:18;11.10;72.40
53268;DHT22;39156;51.176;6.738;2022-12-29T03:28:50;11.10;72.40
53268;DHT22;39156;51.176;6.738;2022-12-29T03:31:19;11.10;72.30
53268;DHT22;39156;51.176;6.738;2022-12-29T03:33:56;11.60;72.60
53268;DHT22;39156;51.176;6.738;2022-12-29T03:36:30;11.90;72.80
53268;DHT22;39156;51.176;6.738;2022-12-29T03:39:03;12.60;73.30
53268;DHT22;39156;51.176;6.738;2022-12-29T03:41:34;11.10;72.20
53268;DHT22;39156;51.176;6.738;2022-12-29T03:44:00;11.10;71.80
53268;DHT22;39156;51.176;6.738;2022-12-29T03:46:29;11.40;72.50
53268;DHT22;39156;51.176;6.738;2022-12-29T03:48:55;11.20;72.40
53268;DHT22;39156;51.176;6.738;2022-12-29T03:51:21;11.30;72.30
53268;DHT22;39156;51.176;6.738;2022-12-29T03:53:46;11.20;71.80
53268;DHT22;39156;51.176;6.738;2022-12-29T03:56:12;11.20;72.30
53268;DHT22;39156;51.176;6.738;2022-12-29T03:58:38;11.80;72.70
53268;DHT22;39156;51.176;6.738;2022-12-29T04:01:04;11.80;72.70
53268;DHT22;39156;51.176;6.738;2022-12-29T04:03:30;11.20;72.40
53268;DHT22;39156;51.176;6.738;2022-12-29T04:05:55;11.20;72.30
53268;DHT22;39156;51.176;6.738;2022-12-29T04:08:21;11.30;72.30
53268;DHT22;39156;51.176;6.738;2022-12-29T04:10:48;11.30;72.20
53268;DHT22;39156;51.176;6.738;2022-12-29T04:13:17;11.30;72.20
53268;DHT22;39156;51.176;6.738;2022-12-29T04:15:43;11.20;72.10
53268;DHT22;39156;51.176;6.738;2022-12-29T04:18:10;11.20;72.00
53268;DHT22;39156;51.176;6.738;2022-12-29T04:20:36;11.30;72.20
53268;DHT22;39156;51.176;6.738;2022-12-29T04:23:21;11.30;72.10
53268;DHT22;39156;51.176;6.738;2022-12-29T04:25:47;11.20;72.00
53268;DHT22;39156;51.176;6.738;2022-12-29T04:28:13;11.70;72.10
53268;DHT22;39156;51.176;6.738;2022-12-29T04:30:39;11.10;71.60
53268;DHT22;39156;51.176;6.738;2022-12-29T04:33:06;12.30;72.30
53268;DHT22;39156;51.176;6.738;2022-12-29T04:35:32;11.20;71.70
53268;DHT22;39156;51.176;6.738;2022-12-29T04:37:58;11.80;71.90
53268;DHT22;39156;51.176;6.738;2022-12-29T04:40:23;12.70;72.20
53268;DHT22;39156;51.176;6.738;2022-12-29T04:42:50;11.30;71.30
53268;DHT22;39156;51.176;6.738;2022-12-29T04:45:49;12.50;72.10
53268;DHT22;39156;51.176;6.738;2022-12-29T04:52:06;11.30;70.90
53268;DHT22;39156;51.176;6.738;2022-12-29T04:54:37;11.20;70.90
53268;DHT22;39156;51.176;6.738;2022-12-29T04:57:03;11.20;70.80
53268;DHT22;39156;51.176;6.738;2022-12-29T04:59:30;11.20;70.60
53268;DHT22;39156;51.176;6.738;2022-12-29T05:01:55;12.50;71.40
53268;DHT22;39156;51.176;6.738;2022-12-29T05:04:23;11.90;71.00
53268;DHT22;39156;51.176;6.738;2022-12-29T05:06:49;11.40;70.70
53268;DHT22;39156;51.176;6.738;2022-12-29T05:09:15;11.30;70.50
53268;DHT22;39156;51.176;6.738;2022-12-29T05:11:41;12.20;70.90
53268;DHT22;39156;51.176;6.738;2022-12-29T05:14:06;11.40;70.60
53268;DHT22;39156;51.176;6.738;2022-12-29T05:16:32;11.50;70.50
53268;DHT22;39156;51.176;6.738;2022-12-29T05:18:58;11.70;70.60
53268;DHT22;39156;51.176;6.738;2022-12-29T05:21:23;11.40;70.50
53268;DHT22;39156;51.176;6.738;2022-12-29T05:23:49;11.40;70.30
53268;DHT22;39156;51.176;6.738;2022-12-29T05:26:15;12.50;71.10
53268;DHT22;39156;51.176;6.738;2022-12-29T05:28:40;11.30;70.30
53268;DHT22;39156;51.176;6.738;2022-12-29T05:31:06;11.90;70.50
53268;DHT22;39156;51.176;6.738;2022-12-29T05:33:32;11.40;70.30
53268;DHT22;39156;51.176;6.738;2022-12-29T05:36:05;11.90;70.50
53268;DHT22;39156;51.176;6.738;2022-12-29T05:38:32;11.30;70.00
53268;DHT22;39156;51.176;6.738;2022-12-29T05:40:57;11.40;70.10
53268;DHT22;39156;51.176;6.738;2022-12-29T05:43:23;11.40;70.00
53268;DHT22;39156;51.176;6.738;2022-12-29T05:45:49;11.60;70.10
53268;DHT22;39156;51.176;6.738;2022-12-29T05:48:19;12.50;70.60
53268;DHT22;39156;51.176;6.738;2022-12-29T05:50:49;11.20;69.80
53268;DHT22;39156;51.176;6.738;2022-12-29T05:53:16;11.20;69.70
53268;DHT22;39156;51.176;6.738;2022-12-29T05:59:15;11.10;69.60
53268;DHT22;39156;51.176;6.738;2022-12-29T06:01:40;11.20;69.80
53268;DHT22;39156;51.176;6.738;2022-12-29T06:04:06;11.50;70.00
53268;DHT22;39156;51.176;6.738;2022-12-29T06:06:32;11.10;69.70
53268;DHT22;39156;51.176;6.738;2022-12-29T06:09:03;11.10;69.70
53268;DHT22;39156;51.176;6.738;2022-12-29T06:11:29;11.10;69.80
53268;DHT22;39156;51.176;6.738;2022-12-29T06:13:54;12.30;70.40
53268;DHT22;39156;51.176;6.738;2022-12-29T06:16:20;11.00;69.60
53268;DHT22;39156;51.176;6.738;2022-12-29T06:18:47;11.00;69.60
53268;DHT22;39156;51.176;6.738;2022-12-29T06:21:13;11.00;69.60
53268;DHT22;39156;51.176;6.738;2022-12-29T06:23:40;11.00;69.80
53268;DHT22;39156;51.176;6.738;2022-12-29T06:26:10;10.90;69.90
53268;DHT22;39156;51.176;6.738;2022-12-29T06:28:42;10.90;69.90
53268;DHT22;39156;51.176;6.738;2022-12-29T06:31:10;10.90;69.90
53268;DHT22;39156;51.176;6.738;2022-12-29T06:33:38;10.90;69.80
53268;DHT22;39156;51.176;6.738;2022-12-29T06:36:11;10.90;70.00
53268;DHT22;39156;51.176;6.738;2022-12-29T06:38:39;10.90;69.60
53268;DHT22;39156;51.176;6.738;2022-12-29T06:41:04;11.30;70.00
53268;DHT22;39156;51.176;6.738;2022-12-29T06:43:30;12.10;70.50
53268;DHT22;39156;51.176;6.738;2022-12-29T06:45:57;10.80;69.50
53268;DHT22;39156;51.176;6.738;2022-12-29T06:48:23;10.80;69.50
53268;DHT22;39156;51.176;6.738;2022-12-29T06:50:49;10.90;69.50
53268;DHT22;39156;51.176;6.738;2022-12-29T06:53:14;10.90;69.40
53268;DHT22;39156;51.176;6.738;2022-12-29T06:55:41;10.80;70.00
53268;DHT22;39156;51.176;6.738;2022-12-29T06:58:07;10.90;69.20
53268;DHT22;39156;51.176;6.738;2022-12-29T07:00:33;11.00;69.10
53268;DHT22;39156;51.176;6.738;2022-12-29T07:02:58;11.00;69.20
53268;DHT22;39156;51.176;6.738;2022-12-29T07:05:25;11.00;69.20
53268;DHT22;39156;51.176;6.738;2022-12-29T07:07:53;11.00;69.00
53268;DHT22;39156;51.176;6.738;2022-12-29T07:10:19;11.00;68.90
53268;DHT22;39156;51.176;6.738;2022-12-29T07:12:46;11.00;68.90
53268;DHT22;39156;51.176;6.738;2022-12-29T07:15:12;11.10;69.20
53268;DHT22;39156;51.176;6.738;2022-12-29T07:17:38;11.10;69.10
53268;DHT22;39156;51.176;6.738;2022-12-29T07:20:04;11.10;69.00
53268;DHT22;39156;51.176;6.738;2022-12-29T07:22:31;11.10;68.90
53268;DHT22;39156;51.176;6.738;2022-12-29T07:24:59;11.50;68.90
53268;DHT22;39156;51.176;6.738;2022-12-29T07:27:28;11.10;68.50
53268;DHT22;39156;51.176;6.738;2022-12-29T07:29:57;11.10;68.50
53268;DHT22;39156;51.176;6.738;2022-12-29T07:32:26;11.00;68.30
53268;DHT22;39156;51.176;6.738;2022-12-29T07:34:53;11.00;68.20
53268;DHT22;39156;51.176;6.738;2022-12-29T07:41:32;10.80;68.00
53268;DHT22;39156;51.176;6.738;2022-12-29T07:44:25;11.00;68.10
53268;DHT22;39156;51.176;6.738;2022-12-29T07:46:51;11.40;68.50
53268;DHT22;39156;51.176;6.738;2022-12-29T07:49:17;11.20;68.10
53268;DHT22;39156;51.176;6.738;2022-12-29T07:51:43;10.90;68.10
53268;DHT22;39156;51.176;6.738;2022-12-29T07:54:10;11.00;67.90
53268;DHT22;39156;51.176;6.738;2022-12-29T07:56:59;10.90;67.80
53268;DHT22;39156;51.176;6.738;2022-12-29T07:59:25;12.00;68.40
53268;DHT22;39156;51.176;6.738;2022-12-29T08:01:51;10.90;67.70
53268;DHT22;39156;51.176;6.738;2022-12-29T08:04:17;10.90;67.80
53268;DHT22;39156;51.176;6.738;2022-12-29T08:06:43;10.90;67.70
53268;DHT22;39156;51.176;6.738;2022-12-29T08:09:12;10.90;67.80
53268;DHT22;39156;51.176;6.738;2022-12-29T08:11:41;10.80;67.90
53268;DHT22;39156;51.176;6.738;2022-12-29T08:14:08;10.90;67.70
53268;DHT22;39156;51.176;6.738;2022-12-29T08:16:34;11.50;68.10
53268;DHT22;39156;51.176;6.738;2022-12-29T08:19:00;10.90;67.70
53268;DHT22;39156;51.176;6.738;2022-12-29T08:21:29;10.90;67.60
53268;DHT22;39156;51.176;6.738;2022-12-29T08:23:55;10.90;67.30
53268;DHT22;39156;51.176;6.738;2022-12-29T08:26:21;10.90;67.40
53268;DHT22;39156;51.176;6.738;2022-12-29T08:28:47;10.90;67.30
53268;DHT22;39156;51.176;6.738;2022-12-29T08:31:12;10.90;67.30
53268;DHT22;39156;51.176;6.738;2022-12-29T08:33:38;10.90;67.10
53268;DHT22;39156;51.176;6.738;2022-12-29T08:36:06;10.80;67.00
53268;DHT22;39156;51.176;6.738;2022-12-29T08:38:32;10.90;67.80
53268;DHT22;39156;51.176;6.738;2022-12-29T08:41:01;10.90;68.60
53268;DHT22;39156;51.176;6.738;2022-12-29T08:43:28;11.10;69.50
53268;DHT22;39156;51.176;6.738;2022-12-29T08:46:25;10.80;69.10
53268;DHT22;39156;51.176;6.738;2022-12-29T08:49:40;10.90;70.00
53268;DHT22;39156;51.176;6.738;2022-12-29T08:52:14;10.70;70.20
53268;DHT22;39156;51.176;6.738;2022-12-29T08:54:40;10.60;69.90
53268;DHT22;39156;51.176;6.738;2022-12-29T08:57:06;10.80;70.40
53268;DHT22;39156;51.176;6.738;2022-12-29T08:59:31;10.60;70.40
53268;DHT22;39156;51.176;6.738;2022-12-29T09:01:57;10.60;70.80
53268;DHT22;39156;51.176;6.738;2022-12-29T09:04:23;10.70;70.50
53268;DHT22;39156;51.176;6.738;2022-12-29T09:06:49;10.80;70.50
53268;DHT22;39156;51.176;6.738;2022-12-29T09:09:15;10.90;70.10
53268;DHT22;39156;51.176;6.738;2022-12-29T09:11:41;11.10;70.00
53268;DHT22;39156;51.176;6.738;2022-12-29T09:14:07;11.20;70.40
53268;DHT22;39156;51.176;6.738;2022-12-29T09:16:34;11.40;69.00
53268;DHT22;39156;51.176;6.738;2022-12-29T09:19:00;11.60;69.10
53268;DHT22;39156;51.176;6.738;2022-12-29T09:21:26;11.80;68.20
53268;DHT22;39156;51.176;6.738;2022-12-29T09:23:51;11.90;67.50
53268;DHT22;39156;51.176;6.738;2022-12-29T09:26:17;12.10;66.80
53268;DHT22;39156;51.176;6.738;2022-12-29T09:28:43;12.20;66.30
53268;DHT22;39156;51.176;6.738;2022-12-29T09:31:10;12.30;66.10
53268;DHT22;39156;51.176;6.738;2022-12-29T09:33:36;12.80;66.60
53268;DHT22;39156;51.176;6.738;2022-12-29T09:36:02;13.00;66.50
53268;DHT22;39156;51.176;6.738;2022-12-29T09:38:28;12.80;65.60
53268;DHT22;39156;51.176;6.738;2022-12-29T09:41:01;13.20;65.00
53268;DHT22;39156;51.176;6.738;2022-12-29T09:46:37;13.30;62.60
53268;DHT22;39156;51.176;6.738;2022-12-29T09:49:23;13.20;61.40
53268;DHT22;39156;51.176;6.738;2022-12-29T09:51:54;13.30;61.30
53268;DHT22;39156;51.176;6.738;2022-12-29T09:57:29;13.10;60.70
53268;DHT22;39156;51.176;6.738;2022-12-29T10:00:05;13.00;60.30
53268;DHT22;39156;51.176;6.738;2022-12-29T10:02:56;13.10;61.30
53268;DHT22;39156;51.176;6.738;2022-12-29T10:05:34;13.70;60.90
53268;DHT22;39156;51.176;6.738;2022-12-29T10:08:37;13.40;61.80
53268;DHT22;39156;51.176;6.738;2022-12-29T10:14:08;13.60;59.50
53268;DHT22;39156;51.176;6.738;2022-12-29T10:25:19;13.80;58.60
53268;DHT22;39156;51.176;6.738;2022-12-29T10:27:52;13.80;59.10
53268;DHT22;39156;51.176;6.738;2022-12-29T10:30:19;13.70;58.90
53268;DHT22;39156;51.176;6.738;2022-12-29T10:32:58;13.70;59.00
53268;DHT22;39156;51.176;6.738;2022-12-29T10:35:29;13.70;58.20
53268;DHT22;39156;51.176;6.738;2022-12-29T10:44:31;14.00;58.80
53268;DHT22;39156;51.176;6.738;2022-12-29T10:47:03;13.40;59.20
53268;DHT22;39156;51.176;6.738;2022-12-29T10:49:42;13.30;59.10
53268;DHT22;39156;51.176;6.738;2022-12-29T10:52:09;13.80;59.20
53268;DHT22;39156;51.176;6.738;2022-12-29T10:54:57;13.40;59.10
53268;DHT22;39156;51.176;6.738;2022-12-29T10:57:41;13.50;57.80
53268;DHT22;39156;51.176;6.738;2022-12-29T11:00:13;13.50;57.90
53268;DHT22;39156;51.176;6.738;2022-12-29T11:09:27;13.50;57.70
53268;DHT22;39156;51.176;6.738;2022-12-29T11:14:45;13.50;58.80
53268;DHT22;39156;51.176;6.738;2022-12-29T11:17:15;13.40;57.90
53268;DHT22;39156;51.176;6.738;2022-12-29T11:19:43;13.40;57.70
53268;DHT22;39156;51.176;6.738;2022-12-29T11:22:23;13.20;57.80
53268;DHT22;39156;51.176;6.738;2022-12-29T11:24:52;13.20;57.90
53268;DHT22;39156;51.176;6.738;2022-12-29T11:27:25;14.20;58.50
53268;DHT22;39156;51.176;6.738;2022-12-29T11:29:54;14.40;58.30
53268;DHT22;39156;51.176;6.738;2022-12-29T11:34:56;12.90;57.80
53268;DHT22;39156;51.176;6.738;2022-12-29T11:37:43;12.80;57.80
53268;DHT22;39156;51.176;6.738;2022-12-29T11:40:19;12.70;58.10
53268;DHT22;39156;51.176;6.738;2022-12-29T11:42:58;12.60;57.80
53268;DHT22;39156;51.176;6.738;2022-12-29T11:45:35;12.60;58.30
53268;DHT22;39156;51.176;6.738;2022-12-29T11:48:15;12.70;58.40
53268;DHT22;39156;51.176;6.738;2022-12-29T11:50:58;12.60;58.10
53268;DHT22;39156;51.176;6.738;2022-12-29T11:53:33;12.30;58.40
53268;DHT22;39156;51.176;6.738;2022-12-29T11:56:33;12.50;59.00
53268;DHT22;39156;51.176;6.738;2022-12-29T12:02:21;12.30;58.80
53268;DHT22;39156;51.176;6.738;2022-12-29T12:04:59;12.30;58.80
53268;DHT22;39156;51.176;6.738;2022-12-29T12:10:06;12.30;58.70
53268;DHT22;39156;51.176;6.738;2022-12-29T12:12:52;12.20;58.90
53268;DHT22;39156;51.176;6.738;2022-12-29T12:15:33;12.20;59.20
53268;DHT22;39156;51.176;6.738;2022-12-29T12:18:33;12.20;59.00
53268;DHT22;39156;51.176;6.738;2022-12-29T12:21:45;13.00;59.00
53268;DHT22;39156;51.176;6.738;2022-12-29T12:25:00;12.00;58.50
53268;DHT22;39156;51.176;6.738;2022-12-29T12:28:04;12.00;58.70
53268;DHT22;39156;51.176;6.738;2022-12-29T12:35:01;11.90;59.00
53268;DHT22;39156;51.176;6.738;2022-12-29T12:43:24;11.80;59.10
53268;DHT22;39156;51.176;6.738;2022-12-29T12:48:57;11.70;59.00
53268;DHT22;39156;51.176;6.738;2022-12-29T13:00:19;11.60;59.30
53268;DHT22;39156;51.176;6.738;2022-12-29T13:06:40;11.30;59.30
53268;DHT22;39156;51.176;6.738;2022-12-29T13:23:12;11.50;59.90
53268;DHT22;39156;51.176;6.738;2022-12-29T13:34:22;11.50;60.00
53268;DHT22;39156;51.176;6.738;2022-12-29T13:37:09;11.60;60.10
53268;DHT22;39156;51.176;6.738;2022-12-29T13:39:49;11.60;59.70
53268;DHT22;39156;51.176;6.738;2022-12-29T13:42:18;11.60;59.70
53268;DHT22;39156;51.176;6.738;2022-12-29T13:44:59;11.50;59.50
53268;DHT22;39156;51.176;6.738;2022-12-29T13:47:39;11.60;59.50
53268;DHT22;39156;51.176;6.738;2022-12-29T13:50:15;11.60;59.40
53268;DHT22;39156;51.176;6.738;2022-12-29T13:52:49;11.60;59.00
53268;DHT22;39156;51.176;6.738;2022-12-29T13:58:26;11.60;58.90
53268;DHT22;39156;51.176;6.738;2022-12-29T14:01:34;11.60;59.20
53268;DHT22;39156;51.176;6.738;2022-12-29T14:04:26;11.50;59.00
53268;DHT22;39156;51.176;6.738;2022-12-29T14:07:04;11.50;59.00
53268;DHT22;39156;51.176;6.738;2022-12-29T14:09:52;11.60;59.20
53268;DHT22;39156;51.176;6.738;2022-12-29T14:12:40;11.50;59.40
53268;DHT22;39156;51.176;6.738;2022-12-29T14:17:37;11.50;59.30
53268;DHT22;39156;51.176;6.738;2022-12-29T14:20:17;11.50;59.20
53268;DHT22;39156;51.176;6.738;2022-12-29T14:23:00;11.50;59.20
53268;DHT22;39156;51.176;6.738;2022-12-29T14:28:46;11.40;59.10
53268;DHT22;39156;51.176;6.738;2022-12-29T14:35:42;11.40;58.70
53268;DHT22;39156;51.176;6.738;2022-12-29T14:38:47;11.30;59.00
53268;DHT22;39156;51.176;6.738;2022-12-29T14:55:44;11.10;59.70
53268;DHT22;39156;51.176;6.738;2022-12-29T14:58:31;11.10;59.40
53268;DHT22;39156;51.176;6.738;2022-12-29T15:01:00;11.00;59.90
53268;DHT22;39156;51.176;6.738;2022-12-29T15:03:32;12.20;60.60
53268;DHT22;39156;51.176;6.738;2022-12-29T15:10:00;10.90;60.20
53268;DHT22;39156;51.176;6.738;2022-12-29T15:13:03;11.00;60.20
53268;DHT22;39156;51.176;6.738;2022-12-29T15:15:37;11.00;60.20
53268;DHT22;39156;51.176;6.738;2022-12-29T15:18:24;11.00;60.20
53268;DHT22;39156;51.176;6.738;2022-12-29T15:20:54;10.90;60.30
53268;DHT22;39156;51.176;6.738;2022-12-29T15:23:22;10.90;60.60
53268;DHT22;39156;51.176;6.738;2022-12-29T15:25:54;10.90;60.30
53268;DHT22;39156;51.176;6.738;2022-12-29T15:28:22;10.90;60.20
53268;DHT22;39156;51.176;6.738;2022-12-29T15:30:54;10.80;60.10
53268;DHT22;39156;51.176;6.738;2022-12-29T15:33:23;10.80;60.30
53268;DHT22;39156;51.176;6.738;2022-12-29T15:35:51;10.90;60.40
53268;DHT22;39156;51.176;6.738;2022-12-29T15:38:27;10.80;60.30
53268;DHT22;39156;51.176;6.738;2022-12-29T15:41:14;10.80;60.50
53268;DHT22;39156;51.176;6.738;2022-12-29T15:43:53;10.80;60.50
53268;DHT22;39156;51.176;6.738;2022-12-29T15:46:34;10.80;60.30
53268;DHT22;39156;51.176;6.738;2022-12-29T15:49:00;10.80;60.50
53268;DHT22;39156;51.176;6.738;2022-12-29T15:51:34;10.80;60.40
53268;DHT22;39156;51.176;6.738;2022-12-29T15:54:02;10.70;60.30
53268;DHT22;39156;51.176;6.738;2022-12-29T15:56:30;10.80;60.30
53268;DHT22;39156;51.176;6.738;2022-12-29T15:58:57;10.70;60.40
53268;DHT22;39156;51.176;6.738;2022-12-29T16:01:24;10.70;60.40
53268;DHT22;39156;51.176;6.738;2022-12-29T16:03:54;10.80;60.30
53268;DHT22;39156;51.176;6.738;2022-12-29T16:06:32;10.80;60.40
53268;DHT22;39156;51.176;6.738;2022-12-29T16:09:46;10.70;60.30
53268;DHT22;39156;51.176;6.738;2022-12-29T16:12:07;10.70;60.20
53268;DHT22;39156;51.176;6.738;2022-12-29T16:14:43;10.80;60.30
53268;DHT22;39156;51.176;6.738;2022-12-29T16:17:16;10.70;60.00
53268;DHT22;39156;51.176;6.738;2022-12-29T16:20:03;10.70;59.90
53268;DHT22;39156;51.176;6.738;2022-12-29T16:22:38;10.70;59.90
53268;DHT22;39156;51.176;6.738;2022-12-29T16:27:44;10.60;59.90
53268;DHT22;39156;51.176;6.738;2022-12-29T16:30:22;10.60;59.90
53268;DHT22;39156;51.176;6.738;2022-12-29T16:32:55;10.50;59.80
53268;DHT22;39156;51.176;6.738;2022-12-29T16:35:45;10.40;59.80
53268;DHT22;39156;51.176;6.738;2022-12-29T16:38:22;10.40;60.20
53268;DHT22;39156;51.176;6.738;2022-12-29T16:40:56;10.40;60.10
53268;DHT22;39156;51.176;6.738;2022-12-29T16:43:30;10.40;60.40
53268;DHT22;39156;51.176;6.738;2022-12-29T16:48:28;10.40;60.50
53268;DHT22;39156;51.176;6.738;2022-12-29T16:51:17;10.40;60.60
53268;DHT22;39156;51.176;6.738;2022-12-29T16:53:52;10.40;60.60
53268;DHT22;39156;51.176;6.738;2022-12-29T16:56:24;10.40;60.60
53268;DHT22;39156;51.176;6.738;2022-12-29T16:59:25;10.40;60.60
53268;DHT22;39156;51.176;6.738;2022-12-29T17:01:55;10.40;60.70
53268;DHT22;39156;51.176;6.738;2022-12-29T17:04:22;10.40;60.70
53268;DHT22;39156;51.176;6.738;2022-12-29T17:06:47;10.40;60.80
53268;DHT22;39156;51.176;6.738;2022-12-29T17:09:24;10.40;60.90
53268;DHT22;39156;51.176;6.738;2022-12-29T17:11:53;10.40;61.20
53268;DHT22;39156;51.176;6.738;2022-12-29T17:16:53;10.40;61.40
53268;DHT22;39156;51.176;6.738;2022-12-29T17:19:24;10.30;61.20
53268;DHT22;39156;51.176;6.738;2022-12-29T17:21:54;10.40;61.30
53268;DHT22;39156;51.176;6.738;2022-12-29T17:24:20;10.30;61.30
53268;DHT22;39156;51.176;6.738;2022-12-29T17:26:48;10.30;61.10
53268;DHT22;39156;51.176;6.738;2022-12-29T17:29:37;10.30;61.20
53268;DHT22;39156;51.176;6.738;2022-12-29T17:32:05;10.30;61.40
53268;DHT22;39156;51.176;6.738;2022-12-29T17:34:32;10.30;61.60
53268;DHT22;39156;51.176;6.738;2022-12-29T17:36:58;10.30;61.60
53268;DHT22;39156;51.176;6.738;2022-12-29T17:39:23;10.30;62.10
53268;DHT22;39156;51.176;6.738;2022-12-29T17:41:49;10.30;62.50
53268;DHT22;39156;51.176;6.738;2022-12-29T17:44:17;10.30;62.80
53268;DHT22;39156;51.176;6.738;2022-12-29T17:46:45;10.30;63.10
53268;DHT22;39156;51.176;6.738;2022-12-29T17:49:17;10.20;63.10
53268;DHT22;39156;51.176;6.738;2022-12-29T17:51:44;10.20;63.40
53268;DHT22;39156;51.176;6.738;2022-12-29T17:54:22;10.20;63.50
53268;DHT22;39156;51.176;6.738;2022-12-29T17:56:49;10.20;63.80
53268;DHT22;39156;51.176;6.738;2022-12-29T17:59:15;10.20;63.70
53268;DHT22;39156;51.176;6.738;2022-12-29T18:01:42;10.10;63.80
53268;DHT22;39156;51.176;6.738;2022-12-29T18:04:15;10.10;64.00
53268;DHT22;39156;51.176;6.738;2022-12-29T18:06:42;10.10;64.40
53268;DHT22;39156;51.176;6.738;2022-12-29T18:09:08;10.00;64.60
53268;DHT22;39156;51.176;6.738;2022-12-29T18:11:38;9.90;64.50
53268;DHT22;39156;51.176;6.738;2022-12-29T18:14:08;9.90;64.60
53268;DHT22;39156;51.176;6.738;2022-12-29T18:16:36;9.80;64.40
53268;DHT22;39156;51.176;6.738;2022-12-29T18:19:02;9.80;64.60
53268;DHT22;39156;51.176;6.738;2022-12-29T18:21:28;9.70;64.60
53268;DHT22;39156;51.176;6.738;2022-12-29T18:23:53;9.90;65.00
53268;DHT22;39156;51.176;6.738;2022-12-29T18:26:24;9.60;65.00
53268;DHT22;39156;51.176;6.738;2022-12-29T18:28:56;9.50;65.20
53268;DHT22;39156;51.176;6.738;2022-12-29T18:31:28;9.50;65.20
53268;DHT22;39156;51.176;6.738;2022-12-29T18:34:00;9.50;65.60
53268;DHT22;39156;51.176;6.738;2022-12-29T18:36:27;9.30;65.50
53268;DHT22;39156;51.176;6.738;2022-12-29T18:38:54;9.30;65.70
53268;DHT22;39156;51.176;6.738;2022-12-29T18:41:25;9.30;65.70
53268;DHT22;39156;51.176;6.738;2022-12-29T18:43:53;9.20;65.60
53268;DHT22;39156;51.176;6.738;2022-12-29T18:46:20;9.10;65.70
53268;DHT22;39156;51.176;6.738;2022-12-29T18:48:45;9.10;65.80
53268;DHT22;39156;51.176;6.738;2022-12-29T18:51:16;9.00;65.90
53268;DHT22;39156;51.176;6.738;2022-12-29T18:53:45;9.00;66.10
53268;DHT22;39156;51.176;6.738;2022-12-29T18:56:11;9.10;66.10
53268;DHT22;39156;51.176;6.738;2022-12-29T18:58:37;9.00;66.10
53268;DHT22;39156;51.176;6.738;2022-12-29T19:01:04;9.00;66.10
53268;DHT22;39156;51.176;6.738;2022-12-29T19:03:30;9.00;66.00